N565DS KCOS-KCOS
Flight info
| Callsign | N565DS |
|---|---|
| Flight time | 0h 2m |
| Altitude | 7500 |
| Route | KCOS KCOS |
| Aircraft | C172/L-SDE1FGHILORVWXY/HB1 |
Departure
| Time | 2026-05-09 00:25 |
|---|---|
| Airport | City of Colorado Springs Municipal Airport (KCOS) |
Arrival
| Time | 2026-05-09 00:27 |
|---|---|
| Airport | City of Colorado Springs Municipal Airport (KCOS) |
| Time | Latitude | Longitude | Altitude | Speed | Heading |
|---|---|---|---|---|---|
| 2026-05-08 23:58 | 38.82100 | -104.70925 | 6188 ft | 0 kts | 219° |
| 2026-05-09 00:11 | 38.82092 | -104.70933 | 6188 ft | 5 kts | 228° |
| 2026-05-09 00:11 | 38.82088 | -104.70991 | 6188 ft | 8 kts | 313° |
| 2026-05-09 00:11 | 38.82134 | -104.71050 | 6188 ft | 10 kts | 314° |
| 2026-05-09 00:12 | 38.82180 | -104.71108 | 6188 ft | 8 kts | 316° |
| 2026-05-09 00:12 | 38.82212 | -104.71149 | 6188 ft | 4 kts | 315° |
| 2026-05-09 00:12 | 38.82223 | -104.71163 | 6189 ft | 1 kts | 315° |
| 2026-05-09 00:12 | 38.82232 | -104.71175 | 6189 ft | 5 kts | 315° |
| 2026-05-09 00:13 | 38.82271 | -104.71225 | 6189 ft | 10 kts | 315° |
| 2026-05-09 00:13 | 38.82304 | -104.71302 | 6189 ft | 11 kts | 263° |
| 2026-05-09 00:13 | 38.82243 | -104.71345 | 6191 ft | 11 kts | 179° |
| 2026-05-09 00:13 | 38.82155 | -104.71345 | 6191 ft | 14 kts | 180° |
| 2026-05-09 00:14 | 38.82040 | -104.71345 | 6189 ft | 18 kts | 180° |
| 2026-05-09 00:14 | 38.81915 | -104.71345 | 6188 ft | 18 kts | 180° |
| 2026-05-09 00:14 | 38.81784 | -104.71346 | 6188 ft | 17 kts | 181° |
| 2026-05-09 00:14 | 38.81664 | -104.71349 | 6188 ft | 17 kts | 182° |
| 2026-05-09 00:15 | 38.81547 | -104.71346 | 6188 ft | 17 kts | 181° |
| 2026-05-09 00:15 | 38.81436 | -104.71344 | 6188 ft | 15 kts | 180° |
| 2026-05-09 00:15 | 38.81340 | -104.71345 | 6188 ft | 13 kts | 184° |
| 2026-05-09 00:15 | 38.81258 | -104.71349 | 6188 ft | 11 kts | 178° |
| 2026-05-09 00:16 | 38.81187 | -104.71345 | 6188 ft | 9 kts | 182° |
| 2026-05-09 00:16 | 38.81124 | -104.71346 | 6188 ft | 8 kts | 182° |
| 2026-05-09 00:16 | 38.81070 | -104.71345 | 6188 ft | 8 kts | 180° |
| 2026-05-09 00:16 | 38.81002 | -104.71345 | 6189 ft | 12 kts | 178° |
| 2026-05-09 00:17 | 38.80905 | -104.71347 | 6188 ft | 16 kts | 179° |
| 2026-05-09 00:17 | 38.80779 | -104.71347 | 6189 ft | 20 kts | 181° |
| 2026-05-09 00:17 | 38.80625 | -104.71348 | 6189 ft | 24 kts | 180° |
| 2026-05-09 00:17 | 38.80454 | -104.71348 | 6188 ft | 25 kts | 181° |
| 2026-05-09 00:18 | 38.80285 | -104.71348 | 6188 ft | 24 kts | 180° |
| 2026-05-09 00:18 | 38.80129 | -104.71349 | 6188 ft | 21 kts | 180° |
| 2026-05-09 00:18 | 38.79983 | -104.71349 | 6188 ft | 20 kts | 180° |
| 2026-05-09 00:18 | 38.79846 | -104.71349 | 6188 ft | 19 kts | 180° |
| 2026-05-09 00:19 | 38.79715 | -104.71350 | 6188 ft | 19 kts | 180° |
| 2026-05-09 00:19 | 38.79591 | -104.71349 | 6189 ft | 17 kts | 180° |
| 2026-05-09 00:19 | 38.79476 | -104.71350 | 6189 ft | 16 kts | 181° |
| 2026-05-09 00:19 | 38.79400 | -104.71372 | 6189 ft | 11 kts | 235° |
| 2026-05-09 00:20 | 38.79393 | -104.71451 | 6189 ft | 8 kts | 270° |
| 2026-05-09 00:20 | 38.79393 | -104.71535 | 6190 ft | 11 kts | 275° |
| 2026-05-09 00:20 | 38.79421 | -104.71591 | 6190 ft | 13 kts | 328° |
| 2026-05-09 00:20 | 38.79541 | -104.71594 | 6189 ft | 29 kts | 360° |
| 2026-05-09 00:21 | 38.79839 | -104.71594 | 6187 ft | 56 kts | 0° |
| 2026-05-09 00:21 | 38.80231 | -104.71560 | 6186 ft | 48 kts | 358° |
| 2026-05-09 00:21 | 38.80637 | -104.71581 | 6189 ft | 67 kts | 356° |
| 2026-05-09 00:21 | 38.81132 | -104.71614 | 6189 ft | 75 kts | 8° |
| 2026-05-09 00:22 | 38.81685 | -104.71586 | 6228 ft | 81 kts | 8° |
| 2026-05-09 00:22 | 38.82262 | -104.71637 | 6284 ft | 83 kts | 4° |
| 2026-05-09 00:22 | 38.82796 | -104.71699 | 6391 ft | 77 kts | 359° |
| 2026-05-09 00:22 | 38.83352 | -104.71804 | 6420 ft | 81 kts | 2° |
| 2026-05-09 00:23 | 38.83823 | -104.72174 | 6445 ft | 91 kts | 300° |
| 2026-05-09 00:23 | 38.83909 | -104.72980 | 6499 ft | 92 kts | 271° |
| 2026-05-09 00:23 | 38.83827 | -104.73790 | 6582 ft | 89 kts | 232° |
| 2026-05-09 00:23 | 38.83312 | -104.74129 | 6475 ft | 90 kts | 184° |
| 2026-05-09 00:24 | 38.82701 | -104.74312 | 6495 ft | 90 kts | 174° |
| 2026-05-09 00:24 | 38.82063 | -104.74307 | 6539 ft | 94 kts | 174° |
| 2026-05-09 00:24 | 38.81436 | -104.74323 | 6683 ft | 85 kts | 169° |
| 2026-05-09 00:24 | 38.80812 | -104.74256 | 6732 ft | 90 kts | 170° |
| 2026-05-09 00:25 | 38.80207 | -104.74151 | 6800 ft | 93 kts | 168° |
| 2026-05-09 00:25 | 38.79592 | -104.74015 | 6855 ft | 87 kts | 163° |
| 2026-05-09 00:25 | 38.79000 | -104.73832 | 6860 ft | 87 kts | 163° |
| 2026-05-09 00:25 | 38.78388 | -104.73638 | 6746 ft | 93 kts | 149° |
| 2026-05-09 00:26 | 38.78074 | -104.72989 | 6728 ft | 92 kts | 91° |
| 2026-05-09 00:26 | 38.78233 | -104.72166 | 6586 ft | 91 kts | 72° |
| 2026-05-09 00:26 | 38.78662 | -104.71628 | 6469 ft | 89 kts | 24° |
| 2026-05-09 00:26 | 38.79247 | -104.71603 | 6261 ft | 80 kts | 11° |
| 2026-05-09 00:27 | 38.79745 | -104.71585 | 6189 ft | 62 kts | 10° |
| 2026-05-09 00:27 | 38.80102 | -104.71587 | 6187 ft | 43 kts | 357° |
| 2026-05-09 00:27 | 38.80312 | -104.71585 | 6186 ft | 19 kts | 9° |
| 2026-05-09 00:27 | 38.80363 | -104.71533 | 6187 ft | 7 kts | 90° |
| 2026-05-09 00:28 | 38.80363 | -104.71494 | 6187 ft | 2 kts | 90° |
| 2026-05-09 00:28 | 38.80363 | -104.71491 | 6187 ft | 0 kts | 90° |
| 2026-05-09 00:28 | 38.80363 | -104.71467 | 6188 ft | 6 kts | 89° |
| 2026-05-09 00:28 | 38.80369 | -104.71432 | 6188 ft | 0 kts | 43° |
| 2026-05-09 00:29 | 38.80383 | -104.71439 | 6188 ft | 6 kts | 322° |
| 2026-05-09 00:29 | 38.80445 | -104.71491 | 6188 ft | 15 kts | 330° |
| 2026-05-09 00:29 | 38.80536 | -104.71549 | 6189 ft | 14 kts | 334° |
| 2026-05-09 00:30 | 38.80620 | -104.71635 | 6189 ft | 16 kts | 287° |
| 2026-05-09 00:30 | 38.80622 | -104.71791 | 6188 ft | 19 kts | 271° |